createdAt,value
2018-10-02T00:00:27.247Z,2.57
2018-10-02T00:03:01.079Z,2.90
2018-10-02T00:05:35.092Z,3.13
2018-10-02T00:08:08.997Z,2.97
2018-10-02T00:10:47.205Z,2.90
2018-10-02T00:13:26.499Z,2.90
2018-10-02T00:16:00.451Z,3.43
2018-10-02T00:18:34.258Z,3.03
2018-10-02T00:21:08.293Z,2.97
2018-10-02T00:23:42.094Z,3.10
2018-10-02T00:26:15.975Z,2.77
2018-10-02T00:28:49.924Z,2.63
2018-10-02T00:31:24.027Z,2.63
2018-10-02T00:33:59.105Z,2.97
2018-10-02T00:36:33.000Z,2.60
2018-10-02T00:39:06.919Z,2.63
2018-10-02T00:41:40.792Z,2.53
2018-10-02T00:44:14.775Z,2.90
2018-10-02T00:46:48.509Z,2.60
2018-10-02T00:49:22.318Z,2.77
2018-10-02T00:51:56.195Z,2.60
2018-10-02T00:54:30.018Z,2.80
2018-10-02T00:57:03.896Z,3.30
2018-10-02T00:59:37.764Z,2.33
2018-10-02T01:02:11.660Z,3.50
2018-10-02T01:04:45.334Z,2.80
2018-10-02T01:07:19.210Z,2.30
2018-10-02T01:09:53.015Z,2.87
2018-10-02T01:12:26.770Z,2.97
2018-10-02T01:15:00.626Z,2.93
2018-10-02T01:17:34.481Z,3.03
2018-10-02T01:20:08.384Z,3.27
2018-10-02T01:22:42.342Z,3.10
2018-10-02T01:25:16.181Z,2.60
2018-10-02T01:27:51.153Z,2.87
2018-10-02T01:30:24.977Z,2.50
2018-10-02T01:32:59.034Z,2.63
2018-10-02T01:35:32.768Z,2.73
2018-10-02T01:38:06.870Z,2.50
2018-10-02T01:40:40.620Z,2.17
2018-10-02T01:43:14.598Z,2.43
2018-10-02T01:45:48.329Z,2.33
2018-10-02T01:48:22.154Z,2.57
2018-10-02T01:50:56.110Z,2.60
2018-10-02T01:53:30.096Z,2.50
2018-10-02T01:56:03.915Z,2.03
2018-10-02T01:58:37.689Z,1.77
2018-10-02T02:01:11.513Z,1.80
2018-10-02T02:03:45.446Z,1.77
2018-10-02T02:06:19.375Z,2.03
2018-10-02T02:08:53.372Z,1.80
2018-10-02T02:11:27.607Z,2.20
2018-10-02T02:14:01.434Z,2.10
2018-10-02T02:16:35.164Z,2.17
2018-10-02T02:19:09.260Z,1.90
2018-10-02T02:21:43.274Z,2.10
2018-10-02T02:24:17.477Z,2.33
2018-10-02T02:26:51.220Z,2.00
2018-10-02T02:29:27.362Z,2.50
2018-10-02T02:32:01.480Z,2.00
2018-10-02T02:34:35.584Z,2.40
2018-10-02T02:37:09.467Z,2.73
2018-10-02T02:39:43.482Z,2.53
2018-10-02T02:42:17.481Z,2.07
2018-10-02T02:44:51.351Z,2.60
2018-10-02T02:47:30.491Z,2.40
2018-10-02T02:50:10.353Z,2.60
2018-10-02T02:52:47.110Z,2.40
2018-10-02T02:55:21.028Z,2.60
2018-10-02T02:57:55.162Z,2.33
2018-10-02T03:00:29.143Z,2.60
2018-10-02T03:03:02.961Z,2.67
2018-10-02T03:05:36.990Z,2.53
2018-10-02T03:08:10.877Z,2.33
2018-10-02T03:10:44.839Z,2.07
2018-10-02T03:13:18.789Z,2.90
2018-10-02T03:15:52.862Z,2.63
2018-10-02T03:18:26.778Z,2.50
2018-10-02T03:21:00.614Z,2.40
2018-10-02T03:23:34.574Z,2.53
2018-10-02T03:26:08.655Z,2.30
2018-10-02T03:28:44.149Z,2.17
2018-10-02T03:31:20.045Z,2.50
2018-10-02T03:33:54.893Z,2.60
2018-10-02T03:36:29.541Z,2.33
2018-10-02T03:39:03.675Z,2.20
2018-10-02T03:41:37.561Z,2.37
2018-10-02T03:44:11.566Z,2.47
2018-10-02T03:46:46.314Z,2.23
2018-10-02T03:49:21.231Z,2.60
2018-10-02T03:51:55.882Z,2.60
2018-10-02T03:54:29.908Z,2.70
2018-10-02T03:57:03.757Z,2.10
2018-10-02T03:59:37.816Z,2.50
2018-10-02T04:02:11.986Z,2.40
2018-10-02T04:04:46.205Z,2.40
2018-10-02T04:07:20.153Z,2.33
2018-10-02T04:09:54.030Z,2.90
2018-10-02T04:12:28.622Z,2.60
2018-10-02T04:15:02.665Z,2.77
2018-10-02T04:17:36.649Z,2.90
2018-10-02T04:20:10.549Z,2.40
2018-10-02T04:22:44.504Z,2.50
2018-10-02T04:25:18.488Z,2.20
2018-10-02T04:27:52.137Z,2.00
2018-10-02T04:30:26.073Z,2.10
2018-10-02T04:32:59.903Z,1.60
2018-10-02T04:35:33.689Z,2.20
2018-10-02T04:38:07.499Z,2.57
2018-10-02T04:40:41.362Z,2.63
2018-10-02T04:43:15.282Z,3.60
2018-10-02T04:45:49.262Z,2.63
2018-10-02T04:48:23.371Z,2.50
2018-10-02T04:50:58.443Z,2.10
2018-10-02T04:53:32.719Z,2.60
2018-10-02T04:56:06.862Z,2.63
2018-10-02T04:58:40.708Z,2.60
2018-10-02T05:01:14.786Z,2.50
2018-10-02T05:03:48.750Z,2.47
2018-10-02T05:06:22.816Z,2.80
2018-10-02T05:08:56.764Z,2.47
2018-10-02T05:11:30.708Z,2.77
2018-10-02T05:14:04.634Z,2.53
2018-10-02T05:16:38.402Z,2.70
2018-10-02T05:19:12.489Z,3.00
2018-10-02T05:21:46.269Z,3.20
2018-10-02T05:24:20.268Z,2.60
2018-10-02T05:26:54.263Z,2.50
2018-10-02T05:29:28.364Z,2.73
2018-10-02T05:32:02.132Z,2.97
2018-10-02T05:34:36.007Z,2.40
2018-10-02T05:37:09.711Z,2.67
2018-10-02T05:39:43.529Z,2.70
2018-10-02T05:42:17.288Z,3.03
2018-10-02T05:44:51.247Z,3.37
2018-10-02T05:47:29.683Z,2.90
2018-10-02T05:50:03.674Z,3.70
2018-10-02T05:52:37.687Z,3.27
2018-10-02T05:55:11.521Z,3.53
2018-10-02T05:57:46.624Z,3.20
2018-10-02T06:00:23.744Z,3.30
2018-10-02T06:02:57.684Z,3.47
2018-10-02T06:05:31.751Z,3.47
2018-10-02T06:08:05.654Z,3.57
2018-10-02T06:10:39.599Z,3.90
2018-10-02T06:13:13.561Z,3.87
2018-10-02T06:15:47.315Z,3.60
2018-10-02T06:18:22.005Z,3.50
2018-10-02T06:20:56.088Z,3.57
2018-10-02T06:23:30.050Z,3.60
2018-10-02T06:26:03.798Z,3.67
2018-10-02T06:28:37.894Z,4.13
2018-10-02T06:31:11.893Z,3.63
2018-10-02T06:33:45.806Z,3.90
2018-10-02T06:36:19.796Z,4.53
2018-10-02T06:38:53.834Z,4.23
2018-10-02T06:41:27.694Z,5.03
2018-10-02T06:44:01.603Z,4.80
2018-10-02T06:46:35.592Z,4.00
2018-10-02T06:49:09.347Z,4.07
2018-10-02T06:51:43.385Z,4.40
2018-10-02T06:54:17.111Z,4.17
2018-10-02T06:56:51.182Z,4.60
2018-10-02T06:59:24.977Z,4.10
2018-10-02T07:01:58.775Z,3.67
2018-10-02T07:04:32.677Z,4.13
2018-10-02T07:07:06.501Z,4.20
2018-10-02T07:09:40.496Z,3.97
2018-10-02T07:12:14.428Z,4.17
2018-10-02T07:14:48.345Z,4.57
2018-10-02T07:17:22.302Z,4.20
2018-10-02T07:19:56.230Z,4.17
2018-10-02T07:22:30.186Z,3.93
2018-10-02T07:25:04.168Z,3.53
2018-10-02T07:27:37.987Z,3.93
2018-10-02T07:30:11.923Z,3.20
2018-10-02T07:32:45.871Z,3.30
2018-10-02T07:35:19.739Z,3.93
2018-10-02T07:37:53.480Z,3.43
2018-10-02T07:40:27.509Z,3.63
2018-10-02T07:43:01.299Z,4.10
2018-10-02T07:45:35.272Z,3.07
2018-10-02T07:48:09.723Z,3.23
2018-10-02T07:50:43.792Z,3.30
2018-10-02T07:53:17.502Z,3.00
2018-10-02T07:55:51.284Z,3.30
2018-10-02T07:58:25.296Z,3.30
2018-10-02T08:00:59.220Z,3.77
2018-10-02T08:03:33.606Z,2.97
2018-10-02T08:06:08.026Z,2.80
2018-10-02T08:08:41.777Z,2.90
2018-10-02T08:11:15.561Z,2.60
2018-10-02T08:13:49.418Z,3.07
2018-10-02T08:16:23.368Z,3.00
2018-10-02T08:18:57.415Z,2.43
2018-10-02T08:21:32.077Z,2.33
2018-10-02T08:24:06.116Z,2.33
2018-10-02T08:26:39.998Z,2.07
2018-10-02T08:29:13.800Z,2.27
2018-10-02T08:31:47.751Z,2.40
2018-10-02T08:34:21.651Z,2.50
2018-10-02T08:36:57.625Z,2.67
2018-10-02T08:39:31.461Z,2.37
2018-10-02T08:42:05.331Z,2.20
2018-10-02T08:44:39.380Z,2.60
2018-10-02T08:47:13.273Z,2.63
2018-10-02T08:49:47.262Z,2.53
2018-10-02T08:52:21.224Z,2.30
2018-10-02T08:54:55.012Z,2.23
2018-10-02T08:57:28.970Z,1.73
2018-10-02T09:00:02.980Z,1.87
2018-10-02T09:02:36.870Z,1.40
2018-10-02T09:05:10.817Z,1.60
2018-10-02T09:07:44.715Z,1.50
2018-10-02T09:10:18.789Z,1.40
2018-10-02T09:12:52.697Z,1.20
2018-10-02T09:15:26.563Z,1.30
2018-10-02T09:18:00.474Z,1.33
2018-10-02T09:20:34.554Z,1.53
2018-10-02T09:23:08.267Z,1.87
2018-10-02T09:25:42.092Z,1.80
2018-10-02T09:28:15.690Z,1.53
2018-10-02T09:30:54.974Z,1.20
2018-10-02T09:33:34.404Z,1.13
2018-10-02T09:36:13.697Z,1.10
2018-10-02T09:38:52.549Z,1.30
2018-10-02T09:41:31.922Z,1.10
2018-10-02T09:44:05.981Z,1.00
2018-10-02T09:46:39.718Z,0.80
2018-10-02T09:49:13.276Z,1.37
2018-10-02T09:51:47.121Z,0.77
2018-10-02T09:54:20.732Z,0.80
2018-10-02T09:56:54.583Z,0.87
2018-10-02T09:59:28.485Z,0.80
2018-10-02T10:02:36.982Z,0.80
2018-10-02T10:05:10.648Z,0.63
2018-10-02T10:07:44.518Z,1.00
2018-10-02T10:10:18.438Z,0.80
2018-10-02T10:12:52.459Z,0.80
2018-10-02T10:15:26.193Z,0.60
2018-10-02T10:17:59.950Z,0.80
2018-10-02T10:20:33.703Z,0.57
2018-10-02T10:23:07.637Z,1.00
2018-10-02T10:25:41.435Z,1.10
2018-10-02T10:28:15.352Z,1.00
2018-10-02T10:30:49.228Z,1.03
2018-10-02T10:33:23.265Z,0.90
2018-10-02T10:35:57.233Z,1.33
2018-10-02T10:38:31.185Z,1.10
2018-10-02T10:41:05.167Z,1.10
2018-10-02T10:43:39.034Z,1.20
2018-10-02T10:46:13.028Z,1.30
2018-10-02T10:48:46.933Z,0.87
2018-10-02T10:51:20.819Z,1.00
2018-10-02T10:53:54.777Z,0.70
2018-10-02T10:56:28.800Z,0.90
2018-10-02T10:59:02.756Z,0.90
2018-10-02T11:01:36.711Z,1.33
2018-10-02T11:04:10.720Z,0.70
2018-10-02T11:06:44.696Z,1.00
2018-10-02T11:09:18.673Z,1.30
2018-10-02T11:11:52.685Z,1.37
2018-10-02T11:14:26.597Z,1.17
2018-10-02T11:17:00.261Z,1.00
2018-10-02T11:19:34.333Z,1.00
2018-10-02T11:22:08.165Z,1.20
2018-10-02T11:24:41.936Z,1.00
2018-10-02T11:27:15.747Z,0.90
2018-10-02T11:29:49.829Z,1.00
2018-10-02T11:32:23.594Z,1.00
2018-10-02T11:34:57.720Z,1.00
2018-10-02T11:37:31.477Z,0.83
2018-10-02T11:40:05.398Z,1.10
2018-10-02T11:42:39.365Z,0.90
2018-10-02T11:45:13.361Z,1.30
2018-10-02T11:47:47.228Z,0.90
2018-10-02T11:50:21.298Z,0.80
2018-10-02T11:52:55.152Z,0.90
2018-10-02T11:55:29.121Z,1.00
2018-10-02T11:58:03.272Z,1.00
2018-10-02T12:00:37.196Z,0.90
2018-10-02T12:03:11.084Z,0.80
2018-10-02T12:05:45.297Z,0.83
2018-10-02T12:08:19.327Z,0.90
2018-10-02T12:10:53.075Z,1.10
2018-10-02T12:13:27.426Z,1.03
2018-10-02T12:16:01.713Z,0.77
2018-10-02T12:18:35.647Z,0.70
2018-10-02T12:21:09.538Z,0.97
2018-10-02T12:23:43.656Z,0.80
2018-10-02T12:26:17.451Z,1.03
2018-10-02T12:28:51.383Z,0.80
2018-10-02T12:31:25.398Z,0.80
2018-10-02T12:33:59.138Z,0.80
2018-10-02T12:36:33.120Z,1.00
2018-10-02T12:39:07.474Z,0.93
2018-10-02T12:41:41.325Z,0.90
2018-10-02T12:44:15.332Z,0.70
2018-10-02T12:46:50.326Z,0.80
2018-10-02T12:49:24.085Z,0.80
2018-10-02T12:51:58.091Z,1.00
2018-10-02T12:54:31.972Z,0.80
2018-10-02T12:57:05.846Z,0.93
2018-10-02T12:59:39.951Z,0.77
2018-10-02T13:02:14.033Z,1.00
2018-10-02T13:04:47.986Z,0.77
2018-10-02T13:07:21.975Z,1.07
2018-10-02T13:09:55.804Z,1.10
2018-10-02T13:12:29.652Z,1.10
2018-10-02T13:15:03.383Z,1.00
2018-10-02T13:17:37.310Z,0.97
2018-10-02T13:20:11.201Z,1.30
2018-10-02T13:22:45.011Z,1.10
2018-10-02T13:25:18.972Z,0.90
2018-10-02T13:27:52.988Z,1.13
2018-10-02T13:30:26.929Z,1.20
2018-10-02T13:33:00.667Z,1.00
2018-10-02T13:35:34.633Z,1.43
2018-10-02T13:38:08.509Z,1.40
2018-10-02T13:40:42.362Z,1.13
2018-10-02T13:43:16.259Z,1.20
2018-10-02T13:45:50.209Z,1.20
2018-10-02T13:48:24.154Z,1.07
2018-10-02T13:50:57.951Z,1.00
2018-10-02T13:53:31.761Z,1.07
2018-10-02T13:56:05.513Z,0.80
2018-10-02T13:58:39.448Z,1.00
2018-10-02T14:01:13.248Z,1.00
2018-10-02T14:03:47.133Z,1.10
2018-10-02T14:06:20.912Z,1.23
2018-10-02T14:08:54.561Z,1.03
2018-10-02T14:11:28.382Z,1.20
2018-10-02T14:14:02.292Z,1.10
2018-10-02T14:16:36.089Z,1.00
2018-10-02T14:19:09.971Z,1.30
2018-10-02T14:21:44.043Z,1.37
2018-10-02T14:24:17.647Z,1.03
2018-10-02T14:26:51.581Z,1.50
2018-10-02T14:29:25.401Z,1.17
2018-10-02T14:31:59.425Z,1.00
2018-10-02T14:34:33.279Z,0.90
2018-10-02T14:37:07.086Z,1.17
2018-10-02T14:39:40.941Z,1.40
2018-10-02T14:42:14.733Z,1.27
2018-10-02T14:44:48.495Z,1.10
2018-10-02T14:47:22.287Z,1.30
2018-10-02T14:49:56.175Z,1.23
2018-10-02T14:52:29.952Z,1.20
2018-10-02T14:55:03.730Z,1.57
2018-10-02T14:57:37.648Z,1.13
2018-10-02T15:00:11.437Z,1.20
2018-10-02T15:02:45.161Z,1.00
2018-10-02T15:05:19.433Z,0.83
2018-10-02T15:07:53.172Z,0.90
2018-10-02T15:10:27.061Z,1.07
2018-10-02T15:13:00.799Z,0.90
2018-10-02T15:15:34.990Z,0.80
2018-10-02T15:18:09.210Z,0.70
2018-10-02T15:20:59.669Z,0.80
2018-10-02T15:23:33.540Z,0.70
2018-10-02T15:26:07.565Z,0.80
2018-10-02T15:28:41.520Z,0.87
2018-10-02T15:31:15.565Z,0.80
2018-10-02T15:33:49.563Z,1.00
2018-10-02T15:36:23.549Z,1.10
2018-10-02T15:38:57.295Z,0.80
2018-10-02T15:41:31.129Z,1.07
2018-10-02T15:44:04.840Z,1.13
2018-10-02T15:46:38.593Z,1.30
2018-10-02T15:49:12.327Z,1.10
2018-10-02T15:51:46.285Z,1.10
2018-10-02T15:54:20.071Z,0.87
2018-10-02T15:56:53.971Z,0.70
2018-10-02T15:59:27.802Z,1.20
2018-10-02T16:02:01.547Z,0.80
2018-10-02T16:04:35.368Z,0.80
2018-10-02T16:07:09.323Z,0.80
2018-10-02T16:09:43.009Z,1.17
2018-10-02T16:12:16.689Z,1.13
2018-10-02T16:14:50.604Z,1.00
2018-10-02T16:17:24.311Z,1.10
2018-10-02T16:19:58.357Z,1.20
2018-10-02T16:22:32.355Z,0.90
2018-10-02T16:25:06.069Z,1.00
2018-10-02T16:27:39.797Z,1.23
2018-10-02T16:30:13.772Z,1.10
2018-10-02T16:32:47.713Z,1.10
2018-10-02T16:35:21.582Z,1.20
2018-10-02T16:37:55.535Z,1.13
2018-10-02T16:40:29.446Z,1.27
2018-10-02T16:43:03.242Z,1.10
2018-10-02T16:45:37.147Z,1.10
2018-10-02T16:48:11.968Z,1.07
2018-10-02T17:07:16.671Z,1.07
2018-10-02T17:09:51.242Z,1.30
2018-10-02T17:22:37.754Z,0.93
2018-10-02T17:25:11.930Z,1.00
2018-10-02T17:27:46.099Z,1.03
2018-10-02T17:30:20.295Z,1.07
2018-10-02T17:32:54.621Z,1.10
2018-10-02T17:35:28.959Z,1.30
2018-10-02T17:38:03.256Z,1.23
2018-10-02T17:42:45.129Z,1.10
2018-10-02T17:46:11.485Z,1.10
2018-10-02T17:54:34.900Z,1.00
2018-10-02T18:00:59.200Z,1.10
2018-10-02T18:17:06.904Z,0.80
2018-10-02T18:19:40.867Z,1.07
2018-10-02T18:22:14.950Z,1.20
2018-10-02T18:24:50.366Z,1.60
2018-10-02T18:27:24.518Z,1.40
2018-10-02T18:30:08.097Z,1.30
2018-10-02T18:35:11.736Z,1.00
2018-10-02T18:40:37.947Z,1.00
2018-10-02T18:43:11.970Z,0.80
2018-10-02T18:45:49.158Z,0.80
2018-10-02T18:54:10.061Z,1.13
2018-10-02T18:56:44.583Z,0.90
2018-10-02T18:59:18.924Z,0.93
2018-10-02T19:01:53.418Z,0.93
2018-10-02T19:07:17.439Z,1.30
2018-10-02T19:09:51.803Z,1.23
2018-10-02T19:12:25.640Z,1.30
2018-10-02T19:14:59.411Z,1.10
2018-10-02T19:17:33.256Z,1.00
2018-10-02T19:20:12.340Z,1.00
2018-10-02T19:22:46.251Z,0.97
2018-10-02T19:25:25.586Z,1.10
2018-10-02T19:27:59.562Z,1.33
2018-10-02T19:30:39.164Z,0.90
2018-10-02T19:33:13.241Z,1.30
2018-10-02T19:35:47.027Z,1.03
2018-10-02T19:38:26.126Z,1.30
2018-10-02T19:41:00.052Z,1.10
2018-10-02T19:43:33.967Z,1.20
2018-10-02T19:46:13.197Z,1.37
2018-10-02T19:48:47.233Z,1.13
2018-10-02T19:51:26.335Z,1.17
2018-10-02T19:54:00.338Z,1.20
2018-10-02T19:56:34.339Z,1.20
2018-10-02T19:59:08.526Z,1.10
2018-10-02T20:01:42.366Z,1.20
2018-10-02T20:04:16.131Z,1.40
2018-10-02T20:06:50.197Z,1.30
2018-10-02T20:09:24.137Z,1.40
2018-10-02T20:11:57.901Z,1.50
2018-10-02T20:14:31.656Z,1.70
2018-10-02T20:17:05.607Z,1.80
2018-10-02T20:19:39.544Z,2.10
2018-10-02T20:22:13.360Z,1.60
2018-10-02T20:24:47.080Z,1.77
2018-10-02T20:27:20.875Z,1.73
2018-10-02T20:29:54.881Z,1.90
2018-10-02T20:32:28.838Z,1.73
2018-10-02T20:35:02.683Z,1.73
2018-10-02T20:37:36.755Z,1.53
2018-10-02T20:40:10.647Z,1.53
2018-10-02T20:42:44.653Z,1.60
2018-10-02T20:45:18.459Z,1.60
2018-10-02T20:47:52.342Z,1.53
2018-10-02T20:50:26.059Z,1.60
2018-10-02T20:52:59.773Z,1.57
2018-10-02T20:55:33.660Z,1.23
2018-10-02T20:58:07.288Z,1.40
2018-10-02T21:00:41.098Z,1.43
2018-10-02T21:03:15.021Z,1.43
2018-10-02T21:05:48.798Z,1.27
2018-10-02T21:08:22.703Z,1.10
2018-10-02T21:10:56.429Z,1.50
2018-10-02T21:13:30.391Z,1.30
2018-10-02T21:16:04.165Z,1.10
2018-10-02T21:18:37.938Z,1.47
2018-10-02T21:21:11.751Z,1.00
2018-10-02T21:23:45.665Z,1.37
2018-10-02T21:26:19.510Z,1.33
2018-10-02T21:28:53.431Z,1.30
2018-10-02T21:31:27.536Z,1.37
2018-10-02T21:34:01.264Z,1.43
2018-10-02T21:36:35.146Z,1.20
2018-10-02T21:39:09.838Z,1.40
2018-10-02T21:41:43.832Z,1.20
2018-10-02T21:44:17.546Z,0.97
2018-10-02T21:46:51.443Z,1.27
2018-10-02T21:49:25.195Z,0.83
2018-10-02T21:51:59.173Z,1.00
2018-10-02T21:54:32.962Z,0.97
2018-10-02T21:57:07.179Z,0.83
2018-10-02T21:59:41.152Z,0.83
2018-10-02T22:02:14.927Z,0.83
2018-10-02T22:04:48.752Z,0.50
2018-10-02T22:07:22.636Z,0.60
2018-10-02T22:09:57.373Z,0.70
2018-10-02T22:12:31.594Z,0.80
2018-10-02T22:15:05.786Z,0.60
2018-10-02T22:17:39.878Z,0.60
2018-10-02T22:20:13.833Z,0.77
2018-10-02T22:22:48.172Z,0.60
2018-10-02T22:25:22.127Z,0.70
2018-10-02T22:27:56.796Z,0.40
2018-10-02T22:30:31.121Z,0.90
2018-10-02T22:33:04.737Z,0.97
2018-10-02T22:35:39.153Z,0.77
2018-10-02T22:38:13.045Z,0.60
2018-10-02T22:40:47.736Z,0.67
2018-10-02T22:43:22.095Z,0.60
2018-10-02T22:45:56.159Z,0.73
2018-10-02T22:48:30.824Z,0.60
2018-10-02T22:51:05.563Z,0.60
2018-10-02T22:53:39.746Z,0.60
2018-10-02T22:56:13.674Z,0.60
2018-10-02T22:58:47.531Z,0.50
2018-10-02T23:01:21.412Z,0.60
2018-10-02T23:03:55.413Z,0.60
2018-10-02T23:06:29.207Z,0.70
2018-10-02T23:09:03.736Z,0.60
2018-10-02T23:11:37.545Z,0.60
2018-10-02T23:14:11.320Z,0.40
2018-10-02T23:16:45.171Z,0.60
2018-10-02T23:19:19.078Z,0.67
2018-10-02T23:21:53.002Z,0.60
2018-10-02T23:24:26.866Z,0.33
2018-10-02T23:27:00.778Z,0.60
2018-10-02T23:29:34.507Z,0.50
2018-10-02T23:32:08.496Z,0.50
2018-10-02T23:34:42.662Z,0.57
2018-10-02T23:37:16.510Z,0.50
2018-10-02T23:39:50.405Z,0.80
2018-10-02T23:42:24.213Z,0.97
2018-10-02T23:44:58.077Z,0.73
2018-10-02T23:47:31.854Z,0.73
2018-10-02T23:50:05.800Z,0.80
2018-10-02T23:52:39.578Z,0.77
2018-10-02T23:55:13.470Z,0.77
2018-10-02T23:57:47.299Z,0.60
